Lake Dallas, Texas
Current Conditions -  °F | °C
As of 5:53 PM on Wednesday 26 Nov 2014 (Local Time) from KDTO Reporting Station
Clear Clear  
Wind Chill: 56°   Ceiling: Unl
Heat Index: 56°   Visibility: 10mi
Dew Point: 34°   Wind: 6mph
Humidity: 44%   Direction: 320°NW
Pressure: 30.26"   Gusts: NA
Location:  33.12°N, 97.03°W
Report Text: KDTO 262353Z 32005KT 10SM CLR 13/01 A3026 RMK AO2 SLP245 T01330011 10172 20133 51023
Loading
Personal Weather Stations






























Interactive Weather Map New forecast layout! Learn more

10-Day Weather Forecast

Advertisements
Track Severe Weather on mobile